sensor_id;sensor_type;location;lat;lon;timestamp;pressure;altitude;pressure_sealevel;temperature;humidity
75536;BME280;64119;52.070;20.804;2023-07-09T00:02:03;100745.31;;;14.88;72.66
75536;BME280;64119;52.070;20.804;2023-07-09T00:04:31;100750.53;;;14.85;71.21
75536;BME280;64119;52.070;20.804;2023-07-09T00:07:02;100751.96;;;14.81;72.83
75536;BME280;64119;52.070;20.804;2023-07-09T00:09:31;100751.02;;;14.75;73.42
75536;BME280;64119;52.070;20.804;2023-07-09T00:11:59;100750.98;;;14.72;73.31
75536;BME280;64119;52.070;20.804;2023-07-09T00:14:27;100751.88;;;14.68;73.24
75536;BME280;64119;52.070;20.804;2023-07-09T00:16:55;100752.05;;;14.65;72.22
75536;BME280;64119;52.070;20.804;2023-07-09T00:19:22;100748.31;;;14.62;72.34
75536;BME280;64119;52.070;20.804;2023-07-09T00:21:57;100747.77;;;14.59;72.74
75536;BME280;64119;52.070;20.804;2023-07-09T00:24:25;100750.20;;;14.57;70.65
75536;BME280;64119;52.070;20.804;2023-07-09T00:26:54;100750.73;;;14.55;72.26
75536;BME280;64119;52.070;20.804;2023-07-09T00:29:22;100752.66;;;14.51;70.95
75536;BME280;64119;52.070;20.804;2023-07-09T00:31:50;100755.08;;;14.47;72.28
75536;BME280;64119;52.070;20.804;2023-07-09T00:34:18;100759.59;;;14.43;73.83
75536;BME280;64119;52.070;20.804;2023-07-09T00:36:49;100763.48;;;14.39;74.60
75536;BME280;64119;52.070;20.804;2023-07-09T00:39:22;100764.59;;;14.37;73.37
75536;BME280;64119;52.070;20.804;2023-07-09T00:41:50;100769.52;;;14.34;74.81
75536;BME280;64119;52.070;20.804;2023-07-09T00:44:27;100771.79;;;14.30;74.45
75536;BME280;64119;52.070;20.804;2023-07-09T00:49:34;100765.73;;;14.23;74.79
75536;BME280;64119;52.070;20.804;2023-07-09T00:54:59;100769.98;;;14.17;73.15
75536;BME280;64119;52.070;20.804;2023-07-09T00:57:28;100770.59;;;14.15;73.86
75536;BME280;64119;52.070;20.804;2023-07-09T01:00:06;100765.86;;;14.11;75.53
75536;BME280;64119;52.070;20.804;2023-07-09T01:02:38;100762.73;;;14.06;75.56
75536;BME280;64119;52.070;20.804;2023-07-09T01:05:15;100760.83;;;14.03;75.50
75536;BME280;64119;52.070;20.804;2023-07-09T01:07:46;100761.89;;;14.01;75.45
75536;BME280;64119;52.070;20.804;2023-07-09T01:10:16;100759.46;;;13.97;74.14
75536;BME280;64119;52.070;20.804;2023-07-09T01:12:46;100761.13;;;13.96;75.57
75536;BME280;64119;52.070;20.804;2023-07-09T01:15:15;100764.49;;;13.92;75.92
75536;BME280;64119;52.070;20.804;2023-07-09T01:17:43;100765.42;;;13.89;76.49
75536;BME280;64119;52.070;20.804;2023-07-09T01:20:17;100764.66;;;13.85;76.11
75536;BME280;64119;52.070;20.804;2023-07-09T01:22:50;100767.16;;;13.83;76.61
75536;BME280;64119;52.070;20.804;2023-07-09T01:25:18;100767.92;;;13.80;76.30
75536;BME280;64119;52.070;20.804;2023-07-09T01:27:47;100768.37;;;13.79;76.03
75536;BME280;64119;52.070;20.804;2023-07-09T01:30:40;100768.44;;;13.75;75.94
75536;BME280;64119;52.070;20.804;2023-07-09T01:33:06;100770.92;;;13.73;77.25
75536;BME280;64119;52.070;20.804;2023-07-09T01:35:39;100769.33;;;13.70;76.49
75536;BME280;64119;52.070;20.804;2023-07-09T01:38:10;100769.27;;;13.68;76.33
75536;BME280;64119;52.070;20.804;2023-07-09T01:40:38;100770.77;;;13.66;77.21
75536;BME280;64119;52.070;20.804;2023-07-09T01:43:06;100766.41;;;13.61;76.57
75536;BME280;64119;52.070;20.804;2023-07-09T01:45:35;100767.10;;;13.60;76.76
75536;BME280;64119;52.070;20.804;2023-07-09T01:48:04;100769.88;;;13.58;77.30
75536;BME280;64119;52.070;20.804;2023-07-09T01:50:32;100774.51;;;13.55;77.66
75536;BME280;64119;52.070;20.804;2023-07-09T01:53:00;100777.27;;;13.53;77.54
75536;BME280;64119;52.070;20.804;2023-07-09T01:55:29;100774.67;;;13.49;77.58
75536;BME280;64119;52.070;20.804;2023-07-09T01:57:58;100775.28;;;13.48;77.11
75536;BME280;64119;52.070;20.804;2023-07-09T02:00:26;100778.09;;;13.45;77.39
75536;BME280;64119;52.070;20.804;2023-07-09T02:02:54;100778.48;;;13.42;77.46
75536;BME280;64119;52.070;20.804;2023-07-09T02:05:23;100781.63;;;13.40;77.68
75536;BME280;64119;52.070;20.804;2023-07-09T02:07:52;100782.47;;;13.37;78.28
75536;BME280;64119;52.070;20.804;2023-07-09T02:10:22;100783.59;;;13.34;79.09
75536;BME280;64119;52.070;20.804;2023-07-09T02:12:50;100783.39;;;13.32;78.85
75536;BME280;64119;52.070;20.804;2023-07-09T02:15:18;100784.98;;;13.29;77.66
75536;BME280;64119;52.070;20.804;2023-07-09T02:17:46;100788.07;;;13.27;78.94
75536;BME280;64119;52.070;20.804;2023-07-09T02:20:14;100787.11;;;13.23;78.50
75536;BME280;64119;52.070;20.804;2023-07-09T02:22:43;100790.49;;;13.22;78.16
75536;BME280;64119;52.070;20.804;2023-07-09T02:25:14;100792.48;;;13.19;78.99
75536;BME280;64119;52.070;20.804;2023-07-09T02:27:42;100796.08;;;13.17;78.53
75536;BME280;64119;52.070;20.804;2023-07-09T02:30:10;100790.98;;;13.15;78.24
75536;BME280;64119;52.070;20.804;2023-07-09T02:32:38;100790.92;;;13.13;78.61
75536;BME280;64119;52.070;20.804;2023-07-09T02:35:07;100797.56;;;13.11;78.91
75536;BME280;64119;52.070;20.804;2023-07-09T02:37:35;100797.31;;;13.10;78.99
75536;BME280;64119;52.070;20.804;2023-07-09T02:40:04;100794.99;;;13.09;78.37
75536;BME280;64119;52.070;20.804;2023-07-09T02:42:32;100793.52;;;13.08;79.02
75536;BME280;64119;52.070;20.804;2023-07-09T02:45:00;100791.87;;;13.07;78.40
75536;BME280;64119;52.070;20.804;2023-07-09T02:47:28;100794.73;;;13.07;78.34
75536;BME280;64119;52.070;20.804;2023-07-09T02:49:57;100792.08;;;13.07;78.99
75536;BME280;64119;52.070;20.804;2023-07-09T02:52:25;100790.75;;;13.06;78.67
75536;BME280;64119;52.070;20.804;2023-07-09T02:54:54;100795.41;;;13.05;79.05
75536;BME280;64119;52.070;20.804;2023-07-09T02:57:22;100795.04;;;13.06;77.87
75536;BME280;64119;52.070;20.804;2023-07-09T02:59:49;100798.73;;;13.06;78.77
75536;BME280;64119;52.070;20.804;2023-07-09T03:02:20;100800.23;;;13.07;78.95
75536;BME280;64119;52.070;20.804;2023-07-09T03:04:47;100801.83;;;13.08;77.41
75536;BME280;64119;52.070;20.804;2023-07-09T03:07:15;100801.02;;;13.09;78.49
75536;BME280;64119;52.070;20.804;2023-07-09T03:09:43;100803.36;;;13.10;78.14
75536;BME280;64119;52.070;20.804;2023-07-09T03:12:11;100806.48;;;13.12;78.75
75536;BME280;64119;52.070;20.804;2023-07-09T03:14:39;100804.76;;;13.14;78.39
75536;BME280;64119;52.070;20.804;2023-07-09T03:17:07;100808.10;;;13.17;78.76
75536;BME280;64119;52.070;20.804;2023-07-09T03:19:35;100806.52;;;13.20;78.93
75536;BME280;64119;52.070;20.804;2023-07-09T03:22:04;100811.59;;;13.24;77.77
75536;BME280;64119;52.070;20.804;2023-07-09T03:24:32;100812.73;;;13.27;78.99
75536;BME280;64119;52.070;20.804;2023-07-09T03:26:59;100811.83;;;13.32;79.21
75536;BME280;64119;52.070;20.804;2023-07-09T03:29:27;100810.96;;;13.35;78.54
75536;BME280;64119;52.070;20.804;2023-07-09T03:31:55;100813.70;;;13.40;78.04
75536;BME280;64119;52.070;20.804;2023-07-09T03:34:23;100813.80;;;13.47;79.64
75536;BME280;64119;52.070;20.804;2023-07-09T03:36:51;100807.53;;;13.51;79.25
75536;BME280;64119;52.070;20.804;2023-07-09T03:39:19;100813.48;;;13.57;77.64
75536;BME280;64119;52.070;20.804;2023-07-09T03:41:46;100817.85;;;13.63;77.74
75536;BME280;64119;52.070;20.804;2023-07-09T03:44:14;100819.94;;;13.70;79.16
75536;BME280;64119;52.070;20.804;2023-07-09T03:46:42;100823.23;;;13.78;77.83
75536;BME280;64119;52.070;20.804;2023-07-09T03:49:10;100823.77;;;13.86;78.13
75536;BME280;64119;52.070;20.804;2023-07-09T03:51:37;100821.33;;;13.93;78.26
75536;BME280;64119;52.070;20.804;2023-07-09T03:54:05;100825.17;;;14.02;77.65
75536;BME280;64119;52.070;20.804;2023-07-09T03:56:33;100828.45;;;14.11;77.43
75536;BME280;64119;52.070;20.804;2023-07-09T03:59:01;100827.63;;;14.20;77.57
75536;BME280;64119;52.070;20.804;2023-07-09T04:01:28;100827.95;;;14.30;78.11
75536;BME280;64119;52.070;20.804;2023-07-09T04:03:56;100827.27;;;14.40;77.28
75536;BME280;64119;52.070;20.804;2023-07-09T04:06:24;100828.11;;;14.51;76.87
75536;BME280;64119;52.070;20.804;2023-07-09T04:08:52;100833.55;;;14.62;77.83
75536;BME280;64119;52.070;20.804;2023-07-09T04:11:20;100833.45;;;14.74;77.72
75536;BME280;64119;52.070;20.804;2023-07-09T04:13:48;100838.91;;;14.86;78.78
75536;BME280;64119;52.070;20.804;2023-07-09T04:16:16;100838.42;;;14.98;76.77
75536;BME280;64119;52.070;20.804;2023-07-09T04:18:44;100833.26;;;15.10;76.94
75536;BME280;64119;52.070;20.804;2023-07-09T04:21:12;100835.67;;;15.22;76.55
75536;BME280;64119;52.070;20.804;2023-07-09T04:23:39;100835.90;;;15.36;77.80
75536;BME280;64119;52.070;20.804;2023-07-09T04:26:13;100833.08;;;15.50;76.68
75536;BME280;64119;52.070;20.804;2023-07-09T04:28:42;100833.48;;;15.65;76.78
75536;BME280;64119;52.070;20.804;2023-07-09T04:31:09;100832.26;;;15.80;77.61
75536;BME280;64119;52.070;20.804;2023-07-09T04:33:37;100836.52;;;15.94;77.40
75536;BME280;64119;52.070;20.804;2023-07-09T04:36:05;100838.29;;;16.09;76.82
75536;BME280;64119;52.070;20.804;2023-07-09T04:38:34;100836.29;;;16.22;76.28
75536;BME280;64119;52.070;20.804;2023-07-09T04:41:01;100837.09;;;16.35;75.74
75536;BME280;64119;52.070;20.804;2023-07-09T04:43:29;100838.59;;;16.48;75.26
75536;BME280;64119;52.070;20.804;2023-07-09T04:45:57;100839.71;;;16.62;74.94
75536;BME280;64119;52.070;20.804;2023-07-09T04:48:25;100840.00;;;16.76;74.82
75536;BME280;64119;52.070;20.804;2023-07-09T04:50:53;100841.67;;;16.89;74.40
75536;BME280;64119;52.070;20.804;2023-07-09T04:53:21;100842.63;;;17.03;74.14
75536;BME280;64119;52.070;20.804;2023-07-09T04:55:51;100845.27;;;17.19;73.90
75536;BME280;64119;52.070;20.804;2023-07-09T04:58:19;100844.16;;;17.33;72.95
75536;BME280;64119;52.070;20.804;2023-07-09T05:00:47;100845.27;;;17.46;72.55
75536;BME280;64119;52.070;20.804;2023-07-09T05:03:14;100847.34;;;17.60;72.68
75536;BME280;64119;52.070;20.804;2023-07-09T05:05:47;100843.66;;;17.73;72.23
75536;BME280;64119;52.070;20.804;2023-07-09T05:08:15;100846.13;;;17.87;71.42
75536;BME280;64119;52.070;20.804;2023-07-09T05:10:46;100845.96;;;18.02;71.34
75536;BME280;64119;52.070;20.804;2023-07-09T05:13:14;100847.55;;;18.16;70.07
75536;BME280;64119;52.070;20.804;2023-07-09T05:15:44;100850.23;;;18.31;69.75
75536;BME280;64119;52.070;20.804;2023-07-09T05:18:13;100855.41;;;18.45;69.11
75536;BME280;64119;52.070;20.804;2023-07-09T05:20:41;100855.51;;;18.60;68.57
75536;BME280;64119;52.070;20.804;2023-07-09T05:23:10;100855.27;;;18.74;68.01
75536;BME280;64119;52.070;20.804;2023-07-09T05:25:38;100857.99;;;18.88;67.07
75536;BME280;64119;52.070;20.804;2023-07-09T05:28:06;100857.15;;;19.01;65.99
75536;BME280;64119;52.070;20.804;2023-07-09T05:30:34;100856.80;;;19.15;65.54
75536;BME280;64119;52.070;20.804;2023-07-09T05:33:01;100862.43;;;19.28;63.78
75536;BME280;64119;52.070;20.804;2023-07-09T05:35:29;100858.19;;;19.40;64.97
75536;BME280;64119;52.070;20.804;2023-07-09T05:37:57;100856.19;;;19.54;64.41
75536;BME280;64119;52.070;20.804;2023-07-09T05:40:25;100853.76;;;19.68;64.01
75536;BME280;64119;52.070;20.804;2023-07-09T05:42:52;100855.16;;;19.80;63.23
75536;BME280;64119;52.070;20.804;2023-07-09T05:45:20;100858.63;;;19.94;63.48
75536;BME280;64119;52.070;20.804;2023-07-09T05:47:48;100858.39;;;20.08;62.88
75536;BME280;64119;52.070;20.804;2023-07-09T05:50:16;100855.71;;;20.22;61.67
75536;BME280;64119;52.070;20.804;2023-07-09T05:52:44;100858.04;;;20.32;58.96
75536;BME280;64119;52.070;20.804;2023-07-09T05:55:11;100862.22;;;20.39;60.53
75536;BME280;64119;52.070;20.804;2023-07-09T05:57:39;100863.05;;;20.46;58.93
75536;BME280;64119;52.070;20.804;2023-07-09T06:00:07;100864.64;;;20.50;59.46
75536;BME280;64119;52.070;20.804;2023-07-09T06:02:43;100868.29;;;20.61;59.63
75536;BME280;64119;52.070;20.804;2023-07-09T06:05:11;100872.25;;;20.71;59.62
75536;BME280;64119;52.070;20.804;2023-07-09T06:07:39;100874.21;;;20.84;58.51
75536;BME280;64119;52.070;20.804;2023-07-09T06:10:08;100871.40;;;20.96;58.29
75536;BME280;64119;52.070;20.804;2023-07-09T06:12:36;100871.11;;;21.06;57.84
75536;BME280;64119;52.070;20.804;2023-07-09T06:15:04;100873.29;;;21.16;57.42
75536;BME280;64119;52.070;20.804;2023-07-09T06:17:32;100868.70;;;21.27;57.68
75536;BME280;64119;52.070;20.804;2023-07-09T06:20:00;100872.27;;;21.37;57.04
75536;BME280;64119;52.070;20.804;2023-07-09T06:22:27;100875.52;;;21.46;56.32
75536;BME280;64119;52.070;20.804;2023-07-09T06:24:55;100877.81;;;21.54;56.75
75536;BME280;64119;52.070;20.804;2023-07-09T06:27:23;100878.69;;;21.66;56.50
75536;BME280;64119;52.070;20.804;2023-07-09T06:29:51;100876.46;;;21.76;55.45
75536;BME280;64119;52.070;20.804;2023-07-09T06:32:19;100874.65;;;21.82;53.98
75536;BME280;64119;52.070;20.804;2023-07-09T06:34:47;100872.90;;;21.90;54.81
75536;BME280;64119;52.070;20.804;2023-07-09T06:37:15;100874.30;;;22.03;54.75
75536;BME280;64119;52.070;20.804;2023-07-09T06:39:42;100877.56;;;22.17;54.35
75536;BME280;64119;52.070;20.804;2023-07-09T06:42:10;100882.09;;;22.28;53.87
75536;BME280;64119;52.070;20.804;2023-07-09T06:44:54;100887.47;;;22.40;53.93
75536;BME280;64119;52.070;20.804;2023-07-09T06:47:22;100889.84;;;22.54;53.19
75536;BME280;64119;52.070;20.804;2023-07-09T06:49:50;100896.46;;;22.64;52.88
75536;BME280;64119;52.070;20.804;2023-07-09T06:52:18;100898.11;;;22.71;51.01
75536;BME280;64119;52.070;20.804;2023-07-09T06:54:46;100897.89;;;22.71;51.21
75536;BME280;64119;52.070;20.804;2023-07-09T06:57:13;100894.63;;;22.75;50.53
75536;BME280;64119;52.070;20.804;2023-07-09T06:59:41;100893.06;;;22.75;49.87
75536;BME280;64119;52.070;20.804;2023-07-09T07:02:09;100896.11;;;22.81;51.26
75536;BME280;64119;52.070;20.804;2023-07-09T07:04:37;100895.79;;;22.93;52.24
75536;BME280;64119;52.070;20.804;2023-07-09T07:07:06;100896.94;;;23.06;51.36
75536;BME280;64119;52.070;20.804;2023-07-09T07:09:33;100895.25;;;23.11;49.16
75536;BME280;64119;52.070;20.804;2023-07-09T07:12:02;100896.02;;;23.15;50.45
75536;BME280;64119;52.070;20.804;2023-07-09T07:14:30;100901.34;;;23.22;50.48
75536;BME280;64119;52.070;20.804;2023-07-09T07:16:59;100903.70;;;23.31;50.49
75536;BME280;64119;52.070;20.804;2023-07-09T07:19:26;100905.20;;;23.39;49.61
75536;BME280;64119;52.070;20.804;2023-07-09T07:21:55;100905.05;;;23.48;49.18
75536;BME280;64119;52.070;20.804;2023-07-09T07:24:23;100905.83;;;23.50;48.13
75536;BME280;64119;52.070;20.804;2023-07-09T07:26:51;100902.17;;;23.54;47.97
75536;BME280;64119;52.070;20.804;2023-07-09T07:29:19;100901.41;;;23.55;47.55
75536;BME280;64119;52.070;20.804;2023-07-09T07:31:47;100897.26;;;23.57;46.94
75536;BME280;64119;52.070;20.804;2023-07-09T07:34:15;100900.45;;;23.57;46.55
75536;BME280;64119;52.070;20.804;2023-07-09T07:36:43;100898.64;;;23.54;46.70
75536;BME280;64119;52.070;20.804;2023-07-09T07:39:11;100893.53;;;23.59;48.02
75536;BME280;64119;52.070;20.804;2023-07-09T07:41:39;100898.83;;;23.74;48.35
75536;BME280;64119;52.070;20.804;2023-07-09T07:44:06;100895.58;;;23.85;46.78
75536;BME280;64119;52.070;20.804;2023-07-09T07:46:36;100893.41;;;23.93;46.81
75536;BME280;64119;52.070;20.804;2023-07-09T07:49:04;100889.45;;;24.04;47.02
75536;BME280;64119;52.070;20.804;2023-07-09T07:51:31;100892.34;;;24.13;45.88
75536;BME280;64119;52.070;20.804;2023-07-09T07:53:59;100891.16;;;24.15;45.71
75536;BME280;64119;52.070;20.804;2023-07-09T07:56:27;100887.85;;;24.06;45.08
75536;BME280;64119;52.070;20.804;2023-07-09T07:58:55;100882.64;;;24.13;46.16
75536;BME280;64119;52.070;20.804;2023-07-09T08:01:22;100880.89;;;24.24;46.56
75536;BME280;64119;52.070;20.804;2023-07-09T08:03:50;100882.30;;;24.24;45.20
75536;BME280;64119;52.070;20.804;2023-07-09T08:06:18;100878.84;;;24.31;44.94
75536;BME280;64119;52.070;20.804;2023-07-09T08:08:46;100883.64;;;24.34;45.02
75536;BME280;64119;52.070;20.804;2023-07-09T08:11:14;100883.57;;;24.43;45.28
75536;BME280;64119;52.070;20.804;2023-07-09T08:13:42;100876.33;;;24.57;45.05
75536;BME280;64119;52.070;20.804;2023-07-09T08:16:11;100879.40;;;24.71;45.51
75536;BME280;64119;52.070;20.804;2023-07-09T08:18:39;100880.59;;;24.87;44.95
75536;BME280;64119;52.070;20.804;2023-07-09T08:21:07;100874.69;;;25.00;44.94
75536;BME280;64119;52.070;20.804;2023-07-09T08:23:36;100877.77;;;25.13;43.47
75536;BME280;64119;52.070;20.804;2023-07-09T08:26:04;100877.61;;;25.23;43.34
75536;BME280;64119;52.070;20.804;2023-07-09T08:28:33;100874.09;;;25.31;43.25
75536;BME280;64119;52.070;20.804;2023-07-09T08:31:04;100877.16;;;25.38;42.53
75536;BME280;64119;52.070;20.804;2023-07-09T08:33:32;100878.48;;;25.44;43.07
75536;BME280;64119;52.070;20.804;2023-07-09T08:36:00;100879.55;;;25.59;43.72
75536;BME280;64119;52.070;20.804;2023-07-09T08:38:27;100884.85;;;25.74;42.33
75536;BME280;64119;52.070;20.804;2023-07-09T08:41:01;100881.04;;;25.75;41.76
75536;BME280;64119;52.070;20.804;2023-07-09T08:43:49;100878.59;;;25.94;43.44
75536;BME280;64119;52.070;20.804;2023-07-09T08:46:54;100879.42;;;26.12;41.55
75536;BME280;64119;52.070;20.804;2023-07-09T08:49:43;100876.77;;;26.35;40.74
75536;BME280;64119;52.070;20.804;2023-07-09T08:52:21;100872.96;;;26.54;39.46
75536;BME280;64119;52.070;20.804;2023-07-09T08:54:53;100874.52;;;26.77;39.01
75536;BME280;64119;52.070;20.804;2023-07-09T08:57:29;100870.27;;;26.87;37.22
75536;BME280;64119;52.070;20.804;2023-07-09T09:00:02;100873.45;;;26.89;36.88
75536;BME280;64119;52.070;20.804;2023-07-09T09:02:39;100873.03;;;26.96;37.52
75536;BME280;64119;52.070;20.804;2023-07-09T09:05:15;100872.26;;;27.11;38.29
75536;BME280;64119;52.070;20.804;2023-07-09T09:07:44;100871.10;;;27.39;35.26
75536;BME280;64119;52.070;20.804;2023-07-09T09:10:18;100871.67;;;27.53;33.92
75536;BME280;64119;52.070;20.804;2023-07-09T09:13:03;100877.77;;;27.43;32.98
75536;BME280;64119;52.070;20.804;2023-07-09T09:15:33;100867.73;;;27.50;33.25
75536;BME280;64119;52.070;20.804;2023-07-09T09:18:19;100865.50;;;27.65;33.38
75536;BME280;64119;52.070;20.804;2023-07-09T09:20:52;100863.66;;;27.87;33.93
75536;BME280;64119;52.070;20.804;2023-07-09T09:23:29;100860.92;;;28.25;33.83
75536;BME280;64119;52.070;20.804;2023-07-09T09:26:00;100860.82;;;28.49;33.08
75536;BME280;64119;52.070;20.804;2023-07-09T09:28:40;100858.36;;;28.76;31.70
75536;BME280;64119;52.070;20.804;2023-07-09T09:31:11;100855.71;;;28.92;30.91
75536;BME280;64119;52.070;20.804;2023-07-09T09:33:44;100859.17;;;29.07;30.53
75536;BME280;64119;52.070;20.804;2023-07-09T09:36:23;100857.61;;;29.33;29.77
75536;BME280;64119;52.070;20.804;2023-07-09T09:38:52;100857.25;;;29.72;30.81
75536;BME280;64119;52.070;20.804;2023-07-09T09:41:24;100857.67;;;30.22;30.63
75536;BME280;64119;52.070;20.804;2023-07-09T09:43:54;100856.61;;;30.52;29.56
75536;BME280;64119;52.070;20.804;2023-07-09T09:46:25;100855.22;;;30.85;30.06
75536;BME280;64119;52.070;20.804;2023-07-09T09:48:58;100850.98;;;31.25;29.56
75536;BME280;64119;52.070;20.804;2023-07-09T09:51:27;100853.42;;;31.70;28.91
75536;BME280;64119;52.070;20.804;2023-07-09T09:54:00;100850.67;;;32.01;28.46
75536;BME280;64119;52.070;20.804;2023-07-09T09:56:33;100847.50;;;32.25;27.65
75536;BME280;64119;52.070;20.804;2023-07-09T09:59:01;100845.10;;;32.69;26.97
75536;BME280;64119;52.070;20.804;2023-07-09T10:01:34;100844.51;;;32.82;25.10
75536;BME280;64119;52.070;20.804;2023-07-09T10:04:04;100840.32;;;33.01;23.87
75536;BME280;64119;52.070;20.804;2023-07-09T10:06:36;100844.79;;;33.34;25.21
75536;BME280;64119;52.070;20.804;2023-07-09T10:11:47;100847.70;;;34.00;24.32
75536;BME280;64119;52.070;20.804;2023-07-09T10:17:03;100838.29;;;34.43;23.49
75536;BME280;64119;52.070;20.804;2023-07-09T10:22:22;100837.77;;;34.19;22.99
75536;BME280;64119;52.070;20.804;2023-07-09T10:25:01;100830.41;;;34.52;23.60
75536;BME280;64119;52.070;20.804;2023-07-09T10:33:12;100833.65;;;34.31;22.80
75536;BME280;64119;52.070;20.804;2023-07-09T10:35:50;100827.83;;;34.67;22.75
75536;BME280;64119;52.070;20.804;2023-07-09T10:40:57;100829.20;;;34.69;21.58
75536;BME280;64119;52.070;20.804;2023-07-09T10:46:21;100834.95;;;34.10;22.68
75536;BME280;64119;52.070;20.804;2023-07-09T10:48:54;100833.67;;;34.13;21.93
75536;BME280;64119;52.070;20.804;2023-07-09T10:51:37;100831.48;;;34.35;23.49
75536;BME280;64119;52.070;20.804;2023-07-09T10:54:33;100823.77;;;34.77;22.44
75536;BME280;64119;52.070;20.804;2023-07-09T10:57:25;100825.64;;;34.98;21.75
75536;BME280;64119;52.070;20.804;2023-07-09T10:59:55;100819.13;;;35.27;21.20
75536;BME280;64119;52.070;20.804;2023-07-09T11:02:32;100812.48;;;35.24;22.01
75536;BME280;64119;52.070;20.804;2023-07-09T11:05:04;100813.25;;;35.38;21.52
75536;BME280;64119;52.070;20.804;2023-07-09T11:10:17;100808.02;;;35.38;20.48
75536;BME280;64119;52.070;20.804;2023-07-09T11:12:57;100807.75;;;35.48;20.34
75536;BME280;64119;52.070;20.804;2023-07-09T11:15:36;100806.74;;;34.77;20.28
75536;BME280;64119;52.070;20.804;2023-07-09T11:18:06;100811.86;;;34.80;21.22
75536;BME280;64119;52.070;20.804;2023-07-09T11:20:40;100808.53;;;34.85;21.14
75536;BME280;64119;52.070;20.804;2023-07-09T11:23:22;100800.02;;;35.08;20.90
75536;BME280;64119;52.070;20.804;2023-07-09T11:28:55;100812.33;;;33.87;21.48
75536;BME280;64119;52.070;20.804;2023-07-09T11:31:35;100813.10;;;33.84;22.25
75536;BME280;64119;52.070;20.804;2023-07-09T11:37:00;100799.39;;;33.84;22.01
75536;BME280;64119;52.070;20.804;2023-07-09T11:42:29;100804.69;;;33.91;21.57
75536;BME280;64119;52.070;20.804;2023-07-09T11:45:10;100801.67;;;33.76;20.90
75536;BME280;64119;52.070;20.804;2023-07-09T11:48:00;100801.17;;;33.66;21.56
75536;BME280;64119;52.070;20.804;2023-07-09T11:50:39;100805.33;;;33.77;21.82
75536;BME280;64119;52.070;20.804;2023-07-09T11:55:44;100801.79;;;33.67;21.74
75536;BME280;64119;52.070;20.804;2023-07-09T11:58:18;100795.19;;;33.66;21.67
75536;BME280;64119;52.070;20.804;2023-07-09T12:00:48;100796.91;;;33.55;22.56
75536;BME280;64119;52.070;20.804;2023-07-09T12:03:26;100789.13;;;33.49;23.09
75536;BME280;64119;52.070;20.804;2023-07-09T12:05:59;100788.15;;;33.44;22.02
75536;BME280;64119;52.070;20.804;2023-07-09T12:11:01;100782.94;;;33.27;21.50
75536;BME280;64119;52.070;20.804;2023-07-09T12:13:36;100786.09;;;32.73;20.98
75536;BME280;64119;52.070;20.804;2023-07-09T12:16:19;100783.89;;;32.55;22.72
75536;BME280;64119;52.070;20.804;2023-07-09T12:18:49;100779.17;;;32.55;22.23
75536;BME280;64119;52.070;20.804;2023-07-09T12:21:17;100778.82;;;32.46;22.05
75536;BME280;64119;52.070;20.804;2023-07-09T12:23:45;100777.38;;;32.24;21.78
75536;BME280;64119;52.070;20.804;2023-07-09T12:26:15;100778.65;;;31.90;21.88
75536;BME280;64119;52.070;20.804;2023-07-09T12:28:51;100779.80;;;31.56;23.10
75536;BME280;64119;52.070;20.804;2023-07-09T12:31:26;100774.44;;;31.41;22.48
75536;BME280;64119;52.070;20.804;2023-07-09T12:33:55;100777.83;;;31.29;22.60
75536;BME280;64119;52.070;20.804;2023-07-09T12:36:25;100774.15;;;31.32;22.51
75536;BME280;64119;52.070;20.804;2023-07-09T12:39:00;100768.27;;;31.20;22.92
75536;BME280;64119;52.070;20.804;2023-07-09T12:41:37;100767.83;;;30.95;24.68
75536;BME280;64119;52.070;20.804;2023-07-09T12:44:14;100771.38;;;30.81;24.53
75536;BME280;64119;52.070;20.804;2023-07-09T12:46:44;100771.52;;;30.62;24.65
75536;BME280;64119;52.070;20.804;2023-07-09T12:51:55;100770.59;;;30.50;24.49
75536;BME280;64119;52.070;20.804;2023-07-09T12:54:23;100772.05;;;30.31;25.31
75536;BME280;64119;52.070;20.804;2023-07-09T12:56:55;100773.98;;;30.02;25.25
75536;BME280;64119;52.070;20.804;2023-07-09T12:59:36;100774.51;;;30.03;25.18
75536;BME280;64119;52.070;20.804;2023-07-09T13:02:18;100763.77;;;30.06;24.99
75536;BME280;64119;52.070;20.804;2023-07-09T13:04:49;100763.22;;;30.01;26.36
75536;BME280;64119;52.070;20.804;2023-07-09T13:09:53;100761.71;;;30.00;26.39
75536;BME280;64119;52.070;20.804;2023-07-09T13:12:30;100762.67;;;30.01;26.16
75536;BME280;64119;52.070;20.804;2023-07-09T13:14:58;100763.42;;;29.81;25.97
75536;BME280;64119;52.070;20.804;2023-07-09T13:17:30;100762.95;;;29.62;26.23
75536;BME280;64119;52.070;20.804;2023-07-09T13:19:58;100764.55;;;29.53;26.45
75536;BME280;64119;52.070;20.804;2023-07-09T13:22:27;100760.24;;;29.44;26.88
75536;BME280;64119;52.070;20.804;2023-07-09T13:24:55;100754.40;;;29.49;27.83
75536;BME280;64119;52.070;20.804;2023-07-09T13:27:23;100751.02;;;29.65;27.09
75536;BME280;64119;52.070;20.804;2023-07-09T13:29:51;100750.61;;;29.79;26.40
75536;BME280;64119;52.070;20.804;2023-07-09T13:32:20;100750.50;;;29.80;25.66
75536;BME280;64119;52.070;20.804;2023-07-09T13:34:48;100751.12;;;29.84;25.17
75536;BME280;64119;52.070;20.804;2023-07-09T13:37:16;100751.31;;;29.81;25.52
75536;BME280;64119;52.070;20.804;2023-07-09T13:39:43;100750.46;;;29.99;25.99
75536;BME280;64119;52.070;20.804;2023-07-09T13:42:13;100753.55;;;30.03;25.62
75536;BME280;64119;52.070;20.804;2023-07-09T13:44:42;100754.10;;;30.10;25.06